Knox, North Dakota
Current Conditions -  °F | °C
As of 3:55 PM on Sunday 25 Jan 2015 (Local Time) from KRUG Reporting Station
Broken Clouds Broken Clouds  
Wind Chill: 15°   Ceiling: 1200
Heat Index: 25°   Visibility: 10mi
Dew Point: 25°   Wind: 9mph
Humidity: 100%   Direction: 200°SSW
Pressure: 29.86"   Gusts: NA
Location:  48.34°N, 99.69°W
Report Text: KRUG 252155Z AUTO 20008KT 10SM BKN012 BKN090 M04/M04 A2986 RMK AO2
Loading
Personal Weather Stations






























Interactive Weather Map New forecast layout! Learn more

10-Day Weather Forecast

Advertisements
Track Severe Weather on mobile